This is the latest recevied weather packets stored in our database for station/object DJ9MA-10. If no packets are shown the sender has not sent any weather packets the latest 10 day(s).
| Time | Temp. | Humidity | Pressure | Rain* | Wind** | Luminosity | Snow |
|---|---|---|---|---|---|---|---|
| 1777636740 | 21.11° C | 40% | 973.8 hPa | - | - | - | - |
| 1777635840 | 21.67° C | 38% | 973.9 hPa | - | - | - | - |
| 1777634940 | 20.56° C | 38% | 973.9 hPa | - | - | - | - |
| 1777634040 | 20° C | 35% | 974 hPa | - | - | - | - |
| 1777633140 | 20.56° C | 36% | 974.1 hPa | - | - | - | - |
| 1777632239 | 19.44° C | 38% | 974.3 hPa | - | - | - | - |
| 1777631339 | 20.56° C | 36% | 974.4 hPa | - | - | - | - |
| 1777630439 | 21.67° C | 36% | 974.5 hPa | - | - | - | - |
| 1777629539 | 22.22° C | 34% | 974.4 hPa | - | - | - | - |
| 1777628639 | 23.33° C | 35% | 974.5 hPa | - | - | - | - |
| 1777627739 | 23.33° C | 33% | 974.5 hPa | - | - | - | - |
| 1777626839 | 26.11° C | 29% | 974.5 hPa | - | - | - | - |
| 1777625939 | 27.78° C | 29% | 974.5 hPa | - | - | - | - |
| 1777625039 | 27.22° C | 29% | 974.5 hPa | - | - | - | - |
| 1777624139 | 27.22° C | 28% | 974.6 hPa | - | - | - | - |
| 1777623239 | 28.33° C | 29% | 974.6 hPa | - | - | - | - |
| 1777622339 | 26.11° C | 30% | 974.5 hPa | - | - | - | - |
| 1777621439 | 24.44° C | 30% | 974.4 hPa | - | - | - | - |
| 1777620539 | 25.56° C | 29% | 974.5 hPa | - | - | - | - |
| 1777619638 | 25.56° C | 29% | 974.4 hPa | - | - | - | - |
| 1777618738 | 25° C | 30% | 974.4 hPa | - | - | - | - |
| 1777617838 | 26.67° C | 29% | 974.5 hPa | - | - | - | - |
| 1777616938 | 27.22° C | 30% | 974.4 hPa | - | - | - | - |
| 1777616038 | 21.67° C | 36% | 974.4 hPa | - | - | - | - |
| 1777615138 | 15° C | 46% | 974.5 hPa | - | - | - | - |
* Rain since midnight (hover to see other rain measurements)
** Current wind speed in m/s (hover to see current wind gust speed)